Time;durP1;ratioP1;P1;durP2;ratioP2;P2;SDS_P1;SDS_P2;PMS_P1;PMS_P2;Temp;Humidity;BMP_temperature;BMP_pressure;BME280_temperature;BME280_humidity;BME280_pressure;Samples;Min_cycle;Max_cycle;Signal;HPM_P1;HPM_P2
2021/08/17 00:01:04;;;;;;;10.77;4.83;;;14.40;99.10;;;;;;5079109;28;20180;-79
2021/08/17 00:03:29;;;;;;;10.57;4.47;;;14.40;99.10;;;;;;5078724;28;20193;-79
2021/08/17 00:05:55;;;;;;;12.57;5.50;;;14.40;99.10;;;;;;5079178;28;20665;-79
2021/08/17 00:08:21;;;;;;;11.50;5.17;;;14.40;99.10;;;;;;5078450;28;20692;-79
2021/08/17 00:10:47;;;;;;;9.07;3.53;;;14.40;99.10;;;;;;5077408;28;20406;-79
2021/08/17 00:13:13;;;;;;;13.73;5.03;;;14.40;99.10;;;;;;5077093;28;20450;-79
2021/08/17 00:15:38;;;;;;;10.00;4.77;;;14.30;99.00;;;;;;5076124;28;20475;-79
2021/08/17 00:18:04;;;;;;;12.60;5.03;;;14.20;99.10;;;;;;5076648;28;20264;-79
2021/08/17 00:20:30;;;;;;;11.13;5.13;;;14.20;99.10;;;;;;5076233;28;20637;-79
2021/08/17 00:22:56;;;;;;;8.77;3.90;;;14.20;99.10;;;;;;5077971;28;20421;-79
2021/08/17 00:25:22;;;;;;;7.53;3.90;;;14.20;99.10;;;;;;5075748;28;20173;-79
2021/08/17 00:27:48;;;;;;;12.07;5.10;;;14.20;99.10;;;;;;5076412;28;20207;-78
2021/08/17 00:30:14;;;;;;;17.20;5.33;;;14.20;99.10;;;;;;5076572;28;20168;-78
2021/08/17 00:32:40;;;;;;;14.13;4.43;;;14.20;99.10;;;;;;5076136;28;20414;-78
2021/08/17 00:35:06;;;;;;;9.03;4.13;;;14.20;99.10;;;;;;5076052;28;20435;-79
2021/08/17 00:37:32;;;;;;;17.45;5.65;;;14.10;99.10;;;;;;5075645;28;20413;-79
2021/08/17 00:39:59;;;;;;;9.85;4.85;;;14.10;99.10;;;;;;5075517;28;20636;-79
2021/08/17 00:42:25;;;;;;;15.13;5.68;;;14.10;98.70;;;;;;5075479;28;20255;-79
2021/08/17 00:44:51;;;;;;;10.27;4.60;;;14.20;98.70;;;;;;5076586;28;20684;-78
2021/08/17 00:47:17;;;;;;;11.77;5.22;;;14.10;98.30;;;;;;5076043;28;20414;-79
2021/08/17 00:49:44;;;;;;;10.25;4.88;;;14.10;99.10;;;;;;5076232;28;20667;-78
2021/08/17 00:52:12;;;;;;;11.75;4.75;;;14.10;98.30;;;;;;5076556;28;20643;-78
2021/08/17 00:54:48;;;;;;;13.38;5.97;;;14.10;97.70;;;;;;5075361;28;20577;-79
2021/08/17 00:57:14;;;;;;;10.75;4.43;;;14.00;97.90;;;;;;5075732;28;20592;-78
2021/08/17 00:59:41;;;;;;;10.07;3.85;;;14.00;97.60;;;;;;5075471;28;20172;-79
2021/08/17 01:02:07;;;;;;;12.57;4.35;;;14.00;97.90;;;;;;5075815;28;20169;-79
2021/08/17 01:04:34;;;;;;;11.70;4.90;;;14.00;98.30;;;;;;5075225;28;20203;-79
2021/08/17 01:07:04;;;;;;;13.60;4.50;;;14.00;98.00;;;;;;5074931;28;20198;-78
2021/08/17 01:09:30;;;;;;;13.60;4.93;;;14.00;97.00;;;;;;5075306;28;20172;-79
2021/08/17 01:11:59;;;;;;;9.20;4.40;;;14.00;97.20;;;;;;5074997;28;20542;-79
2021/08/17 01:14:25;;;;;;;8.18;3.80;;;14.10;97.80;;;;;;5074676;28;20462;-79
2021/08/17 01:16:51;;;;;;;13.37;4.77;;;14.10;96.80;;;;;;5074726;28;20180;-79
2021/08/17 01:19:19;;;;;;;9.83;5.80;;;14.10;97.00;;;;;;5074914;28;20537;-79
2021/08/17 01:21:46;;;;;;;14.95;5.80;;;14.00;96.80;;;;;;5075005;28;20940;-79
2021/08/17 01:24:12;;;;;;;11.65;4.68;;;14.00;98.00;;;;;;5074661;28;20202;-79
2021/08/17 01:26:38;;;;;;;7.03;3.05;;;14.00;97.40;;;;;;5075266;28;20203;-79
2021/08/17 01:29:04;;;;;;;10.82;5.15;;;14.00;96.10;;;;;;5075067;28;20183;-79
2021/08/17 01:31:31;;;;;;;15.77;4.90;;;13.90;96.00;;;;;;5074929;28;20259;-79
2021/08/17 01:33:57;;;;;;;15.02;4.47;;;13.80;96.50;;;;;;5075208;28;20494;-79
2021/08/17 01:36:23;;;;;;;13.65;5.57;;;13.80;97.90;;;;;;5074695;28;20164;-79
2021/08/17 01:38:56;;;;;;;9.80;4.67;;;13.80;97.80;;;;;;5075081;28;20722;-79
2021/08/17 01:41:22;;;;;;;10.52;4.85;;;13.80;96.80;;;;;;5074840;28;20168;-79
2021/08/17 01:43:51;;;;;;;12.53;5.50;;;13.70;97.10;;;;;;5074973;28;20196;-78
2021/08/17 01:46:17;;;;;;;8.25;3.65;;;13.60;96.50;;;;;;5075075;28;20245;-79
2021/08/17 01:48:43;;;;;;;9.43;4.63;;;13.40;97.10;;;;;;5075267;28;20206;-79
2021/08/17 01:51:09;;;;;;;9.10;3.90;;;13.40;96.50;;;;;;5075173;28;20803;-79
2021/08/17 01:53:36;;;;;;;20.02;5.25;;;13.30;97.90;;;;;;5074232;28;20223;-78
2021/08/17 01:56:13;;;;;;;9.95;4.68;;;13.20;97.50;;;;;;5074507;28;20168;-79
2021/08/17 01:58:41;;;;;;;9.63;5.20;;;13.20;97.50;;;;;;5074878;28;20168;-79
2021/08/17 02:01:08;;;;;;;11.95;5.28;;;13.20;97.70;;;;;;5074975;28;20684;-79
2021/08/17 02:03:34;;;;;;;10.50;4.90;;;13.20;97.40;;;;;;5074731;28;20200;-79
2021/08/17 02:06:01;;;;;;;11.88;5.45;;;13.10;97.60;;;;;;5075042;28;20222;-79
2021/08/17 02:08:26;;;;;;;8.57;4.28;;;13.10;98.30;;;;;;5074009;28;20172;-79
2021/08/17 02:10:52;;;;;;;19.13;5.13;;;13.00;98.00;;;;;;5074569;28;20198;-79
2021/08/17 02:13:18;;;;;;;9.93;4.60;;;13.00;98.10;;;;;;5074166;28;20462;-79
2021/08/17 02:15:45;;;;;;;13.63;4.47;;;13.00;98.00;;;;;;5073612;28;20191;-79
2021/08/17 02:18:12;;;;;;;26.27;4.78;;;12.90;97.20;;;;;;5073661;28;20175;-79
2021/08/17 02:20:38;;;;;;;10.15;5.03;;;12.90;97.40;;;;;;5074124;28;20180;-79
2021/08/17 02:23:04;;;;;;;14.23;4.35;;;12.90;98.00;;;;;;5073362;28;20669;-79
2021/08/17 02:25:30;;;;;;;10.00;5.13;;;12.90;97.40;;;;;;5073336;28;20177;-79
2021/08/17 02:27:56;;;;;;;13.52;4.38;;;12.90;97.70;;;;;;5073399;28;20415;-78
2021/08/17 02:30:21;;;;;;;11.03;4.57;;;12.90;97.40;;;;;;5073983;28;20230;-78
2021/08/17 02:32:47;;;;;;;10.33;4.40;;;12.90;97.50;;;;;;5073758;28;20414;-78
2021/08/17 02:35:13;;;;;;;12.53;4.47;;;12.90;96.80;;;;;;5073056;28;20518;-79
2021/08/17 02:37:39;;;;;;;11.47;5.27;;;12.80;96.70;;;;;;5073498;28;20930;-78
2021/08/17 02:40:05;;;;;;;12.77;4.63;;;12.80;98.10;;;;;;5073291;28;20465;-79
2021/08/17 02:42:33;;;;;;;9.38;4.60;;;12.80;98.70;;;;;;5073160;28;20411;-78
2021/08/17 02:44:59;;;;;;;12.10;4.93;;;12.80;98.40;;;;;;5073264;28;20674;-78
2021/08/17 02:47:26;;;;;;;18.83;4.75;;;12.80;98.40;;;;;;5073592;28;20187;-79
2021/08/17 02:49:52;;;;;;;17.92;4.50;;;12.80;98.70;;;;;;5073907;28;20543;-79
2021/08/17 02:52:18;;;;;;;13.00;4.43;;;12.80;98.80;;;;;;5073815;28;20177;-79
2021/08/17 02:54:44;;;;;;;12.98;4.97;;;12.80;98.90;;;;;;5073542;28;20240;-79
2021/08/17 02:57:09;;;;;;;15.10;5.37;;;12.70;98.80;;;;;;5073523;28;20631;-79
2021/08/17 02:59:36;;;;;;;19.37;5.17;;;12.70;99.10;;;;;;5074170;28;20541;-79
2021/08/17 03:02:02;;;;;;;10.00;4.30;;;12.70;99.10;;;;;;5074658;28;20406;-79
2021/08/17 03:04:28;;;;;;;13.88;4.10;;;12.70;99.10;;;;;;5074395;28;20196;-78
2021/08/17 03:06:57;;;;;;;10.53;4.23;;;12.70;98.60;;;;;;5078186;28;20176;-79
2021/08/17 03:09:23;;;;;;;12.82;4.57;;;12.70;98.30;;;;;;5077871;28;20842;-79
2021/08/17 03:11:49;;;;;;;8.40;4.05;;;12.60;98.40;;;;;;5078038;28;20179;-79
2021/08/17 03:14:15;;;;;;;10.00;4.82;;;12.60;98.30;;;;;;5078072;28;20299;-79
2021/08/17 03:16:41;;;;;;;19.42;4.93;;;12.60;98.60;;;;;;5078104;28;20185;-78
2021/08/17 03:19:08;;;;;;;9.50;3.77;;;12.50;98.50;;;;;;5078224;28;20198;-79
2021/08/17 03:21:34;;;;;;;13.90;5.07;;;12.50;98.90;;;;;;5077482;28;20411;-79
2021/08/17 03:24:00;;;;;;;11.55;5.75;;;12.60;98.50;;;;;;5077749;28;20192;-79
2021/08/17 03:26:26;;;;;;;10.52;4.18;;;12.60;98.40;;;;;;5077442;28;20172;-79
2021/08/17 03:28:52;;;;;;;10.50;4.80;;;12.60;98.40;;;;;;5077622;28;20235;-79
2021/08/17 03:31:19;;;;;;;14.27;4.60;;;12.50;98.20;;;;;;5077180;28;20413;-79
2021/08/17 03:33:44;;;;;;;12.35;5.15;;;12.50;98.30;;;;;;5077528;28;20207;-80
2021/08/17 03:36:10;;;;;;;10.67;4.17;;;12.50;98.40;;;;;;5077511;28;20542;-78
2021/08/17 03:38:36;;;;;;;10.10;4.87;;;12.50;98.50;;;;;;5077254;28;20218;-78
2021/08/17 03:41:02;;;;;;;11.80;4.10;;;12.50;98.70;;;;;;5077928;28;20191;-78
2021/08/17 03:43:28;;;;;;;11.05;3.83;;;12.40;98.60;;;;;;5076648;28;20438;-79
2021/08/17 03:45:55;;;;;;;16.13;5.83;;;12.40;98.90;;;;;;5077067;28;20243;-79
2021/08/17 03:48:21;;;;;;;14.00;4.05;;;12.40;98.80;;;;;;5077278;28;20415;-79
2021/08/17 03:50:47;;;;;;;8.17;3.77;;;12.30;99.00;;;;;;5077327;28;20187;-79
2021/08/17 03:53:13;;;;;;;11.02;4.55;;;12.40;98.90;;;;;;5077140;28;20466;-79
2021/08/17 03:55:39;;;;;;;15.50;4.68;;;12.30;98.80;;;;;;5077235;28;20168;-79
2021/08/17 03:58:05;;;;;;;9.97;4.33;;;12.30;99.00;;;;;;5077487;28;20177;-79
2021/08/17 04:00:35;;;;;;;12.25;4.40;;;12.30;98.80;;;;;;5077773;28;20184;-79
2021/08/17 04:03:01;;;;;;;15.05;4.97;;;12.30;99.10;;;;;;5077466;28;20176;-79
2021/08/17 04:05:27;;;;;;;8.50;4.03;;;12.20;99.10;;;;;;5077079;28;20168;-78
2021/08/17 04:07:53;;;;;;;13.30;4.18;;;12.20;99.10;;;;;;5077378;28;20414;-79
2021/08/17 04:10:20;;;;;;;9.70;4.45;;;12.20;99.10;;;;;;5077368;28;20637;-79
2021/08/17 04:12:46;;;;;;;7.50;3.58;;;12.20;98.80;;;;;;5077722;28;20540;-78
2021/08/17 04:15:13;;;;;;;9.60;4.90;;;12.20;98.90;;;;;;5077440;28;20192;-79
2021/08/17 04:17:40;;;;;;;26.65;5.18;;;12.10;98.80;;;;;;5077564;28;20157;-82
2021/08/17 04:20:08;;;;;;;11.95;3.63;;;12.10;99.10;;;;;;5076581;28;20172;-81
2021/08/17 04:22:34;;;;;;;13.88;4.85;;;12.10;99.10;;;;;;5076971;28;20221;-81
2021/08/17 04:25:00;;;;;;;7.30;4.38;;;12.10;99.10;;;;;;5076329;28;20585;-81
2021/08/17 04:27:26;;;;;;;10.98;4.45;;;12.10;99.10;;;;;;5076853;28;20181;-82
2021/08/17 04:29:51;;;;;;;14.63;4.60;;;12.10;98.90;;;;;;5076185;28;20194;-82
2021/08/17 04:32:18;;;;;;;11.10;4.50;;;12.10;99.00;;;;;;5077867;28;20500;-81
2021/08/17 04:34:43;;;;;;;16.40;5.15;;;12.10;99.10;;;;;;5075735;28;20777;-81
2021/08/17 04:37:09;;;;;;;14.57;4.90;;;12.10;99.10;;;;;;5076271;28;20172;-81
2021/08/17 04:39:36;;;;;;;17.17;5.07;;;12.10;99.10;;;;;;5076590;28;20176;-81
2021/08/17 04:42:02;;;;;;;12.88;5.10;;;12.10;99.10;;;;;;5076365;28;20195;-81
2021/08/17 04:44:28;;;;;;;10.82;5.10;;;12.10;99.10;;;;;;5076407;28;20195;-82
2021/08/17 04:46:54;;;;;;;7.60;3.77;;;12.20;99.10;;;;;;5077201;28;20671;-82
2021/08/17 04:49:20;;;;;;;14.40;4.83;;;12.20;99.10;;;;;;5076566;28;20415;-81
2021/08/17 04:51:46;;;;;;;9.47;4.30;;;12.30;99.10;;;;;;5077209;28;20443;-83
2021/08/17 04:54:11;;;;;;;10.80;4.93;;;12.30;99.10;;;;;;5076593;28;20952;-83
2021/08/17 04:56:37;;;;;;;12.73;4.63;;;12.20;98.90;;;;;;5075690;28;20935;-81
2021/08/17 04:59:03;;;;;;;9.53;4.00;;;12.20;99.00;;;;;;5075076;28;20422;-82
2021/08/17 05:01:30;;;;;;;8.70;4.63;;;12.30;98.80;;;;;;5076804;28;20407;-81
2021/08/17 05:03:57;;;;;;;12.82;4.88;;;12.20;98.70;;;;;;5075095;28;20805;-81
2021/08/17 05:06:23;;;;;;;10.75;5.35;;;12.30;98.60;;;;;;5074557;28;20204;-81
2021/08/17 05:08:49;;;;;;;8.80;4.07;;;12.30;98.40;;;;;;5076017;28;20179;-81
2021/08/17 05:11:15;;;;;;;12.33;5.30;;;12.30;98.10;;;;;;5073632;28;20433;-81
2021/08/17 05:13:41;;;;;;;12.50;5.18;;;12.30;98.50;;;;;;5073836;28;20501;-82
2021/08/17 05:16:07;;;;;;;14.52;5.07;;;12.30;98.40;;;;;;5075149;28;20184;-81
2021/08/17 05:18:33;;;;;;;14.53;5.70;;;12.30;98.60;;;;;;5074787;28;20668;-82
2021/08/17 05:21:02;;;;;;;10.77;5.60;;;12.30;98.70;;;;;;5075137;28;20407;-80
2021/08/17 05:23:28;;;;;;;13.60;4.50;;;12.30;98.90;;;;;;5075203;28;20438;-80
2021/08/17 05:25:54;;;;;;;16.27;5.55;;;12.30;99.10;;;;;;5075564;28;20172;-80
2021/08/17 05:28:21;;;;;;;12.55;5.07;;;12.40;98.90;;;;;;5074359;28;20176;-80
2021/08/17 05:30:48;;;;;;;10.95;4.55;;;12.40;99.10;;;;;;5075029;28;20250;-80
2021/08/17 05:33:14;;;;;;;16.17;5.00;;;12.50;98.50;;;;;;5075084;28;20203;-80
2021/08/17 05:35:41;;;;;;;17.65;5.88;;;12.50;99.00;;;;;;5074818;28;20172;-80
2021/08/17 05:38:06;;;;;;;15.55;4.88;;;12.60;98.70;;;;;;5075019;28;20199;-80
2021/08/17 05:40:32;;;;;;;11.93;5.20;;;12.60;98.00;;;;;;5075428;28;20172;-81
2021/08/17 05:42:58;;;;;;;11.40;4.20;;;12.70;98.10;;;;;;5074593;28;20418;-81
2021/08/17 05:45:24;;;;;;;15.33;4.70;;;12.70;97.40;;;;;;5075002;28;20236;-80
2021/08/17 05:47:50;;;;;;;13.70;4.70;;;12.80;97.70;;;;;;5075172;28;20543;-79
2021/08/17 05:50:17;;;;;;;9.75;4.05;;;12.80;97.10;;;;;;5074783;28;20414;-79
2021/08/17 05:52:43;;;;;;;18.17;7.53;;;12.90;96.60;;;;;;5074309;28;20176;-81
2021/08/17 05:55:10;;;;;;;14.43;5.45;;;13.00;96.70;;;;;;5074555;28;20299;-81
2021/08/17 05:57:36;;;;;;;15.23;5.28;;;13.00;96.60;;;;;;5074101;28;20194;-81
2021/08/17 06:00:10;;;;;;;11.15;4.00;;;13.00;96.50;;;;;;5074428;28;20192;-81
2021/08/17 06:02:35;;;;;;;21.80;6.85;;;13.10;95.80;;;;;;5074587;28;20203;-81
2021/08/17 06:05:01;;;;;;;12.77;5.20;;;13.20;95.20;;;;;;5074254;28;20279;-81
2021/08/17 06:07:27;;;;;;;19.53;3.73;;;13.20;95.60;;;;;;5074224;28;20172;-81
2021/08/17 06:09:53;;;;;;;16.13;4.77;;;13.20;95.40;;;;;;5074197;28;20173;-81
2021/08/17 06:12:18;;;;;;;10.93;4.37;;;13.30;95.10;;;;;;5073563;28;20418;-80
2021/08/17 06:14:44;;;;;;;13.50;5.90;;;13.40;93.70;;;;;;5073697;28;20473;-80
2021/08/17 06:17:10;;;;;;;9.77;4.07;;;13.50;94.30;;;;;;5073936;28;20485;-81
2021/08/17 06:19:37;;;;;;;12.70;5.32;;;13.60;93.50;;;;;;5057573;28;20211;-80
2021/08/17 06:22:03;;;;;;;12.13;4.77;;;13.60;94.10;;;;;;5073382;28;20640;-80
2021/08/17 06:24:29;;;;;;;13.35;4.85;;;13.60;93.40;;;;;;5073789;28;20808;-80
2021/08/17 06:26:54;;;;;;;12.30;4.20;;;13.70;93.70;;;;;;5073578;28;20246;-80
2021/08/17 06:29:20;;;;;;;10.40;4.10;;;13.80;93.60;;;;;;5073683;28;20176;-80
2021/08/17 06:31:46;;;;;;;8.83;4.03;;;13.90;93.30;;;;;;5073562;28;20218;-80
2021/08/17 06:34:11;;;;;;;13.47;4.00;;;13.90;94.60;;;;;;5073368;28;20204;-80
2021/08/17 06:36:37;;;;;;;15.60;5.07;;;14.10;93.90;;;;;;5074542;28;20172;-80
2021/08/17 06:39:04;;;;;;;16.30;4.47;;;14.20;93.50;;;;;;5073340;28;20176;-80
2021/08/17 06:41:31;;;;;;;12.70;4.72;;;14.30;92.90;;;;;;5073343;28;20946;-80
2021/08/17 06:43:57;;;;;;;8.95;4.35;;;14.30;92.50;;;;;;5073326;28;20667;-80
2021/08/17 06:46:23;;;;;;;12.07;5.10;;;14.40;92.80;;;;;;5072777;28;20218;-80
2021/08/17 06:48:49;;;;;;;10.10;4.30;;;14.50;92.90;;;;;;5072978;28;20517;-81
2021/08/17 06:51:14;;;;;;;10.50;4.30;;;14.60;94.20;;;;;;5073237;28;20187;-81
2021/08/17 06:53:40;;;;;;;12.90;4.00;;;14.70;92.70;;;;;;5073090;28;20200;-81
2021/08/17 06:56:07;;;;;;;11.53;3.87;;;14.80;92.80;;;;;;5073540;28;20168;-81
2021/08/17 06:58:33;;;;;;;11.70;5.07;;;15.00;93.00;;;;;;5073418;28;20177;-81
2021/08/17 07:00:59;;;;;;;16.88;4.63;;;15.20;92.70;;;;;;5072953;28;20172;-81
2021/08/17 07:03:25;;;;;;;10.77;4.88;;;15.30;91.10;;;;;;5073388;28;20321;-81
2021/08/17 07:05:50;;;;;;;12.93;5.10;;;15.30;92.50;;;;;;5073079;28;20184;-80
2021/08/17 07:08:17;;;;;;;14.33;5.03;;;15.40;91.80;;;;;;5073236;28;20468;-81
2021/08/17 07:10:44;;;;;;;11.30;4.35;;;15.50;88.90;;;;;;5073093;28;20450;-81
2021/08/17 07:13:10;;;;;;;9.35;4.72;;;15.60;87.80;;;;;;5072292;28;20172;-81
2021/08/17 07:15:36;;;;;;;16.95;5.57;;;15.70;86.60;;;;;;5073346;28;20184;-81
2021/08/17 07:18:02;;;;;;;11.67;4.97;;;15.70;82.80;;;;;;5073084;28;20728;-81
2021/08/17 07:20:29;;;;;;;17.95;5.93;;;15.70;83.90;;;;;;5073537;28;20195;-80
2021/08/17 07:22:55;;;;;;;10.98;4.82;;;15.70;84.50;;;;;;5072979;28;20230;-81
2021/08/17 07:25:21;;;;;;;13.70;5.53;;;15.70;84.10;;;;;;5072812;28;20605;-81
2021/08/17 07:27:47;;;;;;;13.60;5.25;;;15.70;84.40;;;;;;5073222;28;20218;-80
2021/08/17 07:30:13;;;;;;;17.90;5.80;;;15.80;82.00;;;;;;5072959;28;20708;-80
2021/08/17 07:32:44;;;;;;;16.30;6.55;;;15.80;83.70;;;;;;5073393;28;20169;-81
2021/08/17 07:35:12;;;;;;;13.63;5.53;;;15.80;83.90;;;;;;5072602;28;20201;-80
2021/08/17 07:37:41;;;;;;;15.13;5.68;;;15.90;83.90;;;;;;5073469;28;20236;-79
2021/08/17 07:40:07;;;;;;;12.10;4.90;;;16.00;81.40;;;;;;5073773;28;20232;-80
2021/08/17 07:42:34;;;;;;;14.35;5.05;;;16.10;81.70;;;;;;5073819;28;20180;-79
2021/08/17 07:45:00;;;;;;;18.05;6.47;;;16.10;81.90;;;;;;5072490;28;20196;-80
2021/08/17 07:47:25;;;;;;;12.02;5.90;;;16.20;79.80;;;;;;5072764;28;20172;-80
2021/08/17 07:49:51;;;;;;;11.13;4.47;;;16.30;78.80;;;;;;5073029;28;20187;-80
2021/08/17 07:52:17;;;;;;;13.10;4.40;;;16.40;80.50;;;;;;5076213;28;20234;-80
2021/08/17 07:54:43;;;;;;;10.97;5.43;;;16.50;77.60;;;;;;5076189;28;20204;-80
2021/08/17 07:57:09;;;;;;;11.00;4.67;;;16.60;77.60;;;;;;5076308;28;20255;-80
2021/08/17 07:59:35;;;;;;;14.67;5.20;;;16.80;75.60;;;;;;5077134;28;20410;-80
2021/08/17 08:02:00;;;;;;;15.47;4.83;;;16.90;76.40;;;;;;5076402;28;20168;-81
2021/08/17 08:04:26;;;;;;;8.83;5.50;;;16.90;76.60;;;;;;5076104;28;20475;-81
2021/08/17 08:06:52;;;;;;;11.93;5.23;;;17.00;77.10;;;;;;5076300;28;20446;-81
2021/08/17 08:09:18;;;;;;;11.20;4.70;;;17.10;73.40;;;;;;5076292;28;20172;-81
2021/08/17 08:11:43;;;;;;;13.47;4.73;;;17.20;74.90;;;;;;5078527;28;20438;-81
2021/08/17 08:14:09;;;;;;;10.27;4.67;;;17.20;71.60;;;;;;5078312;28;20281;-81
2021/08/17 08:16:35;;;;;;;14.20;6.10;;;17.00;72.60;;;;;;5075990;28;20434;-81
2021/08/17 08:19:03;;;;;;;16.97;5.00;;;17.00;73.50;;;;;;5076578;28;20172;-81
2021/08/17 08:21:28;;;;;;;13.27;4.57;;;16.90;75.90;;;;;;5076473;28;20494;-81
2021/08/17 08:23:54;;;;;;;15.13;4.50;;;17.00;74.10;;;;;;5075738;28;20707;-81
2021/08/17 08:26:20;;;;;;;12.15;5.43;;;17.20;73.50;;;;;;5075491;28;20407;-80
2021/08/17 08:28:49;;;;;;;12.50;5.17;;;17.40;73.40;;;;;;5075804;28;20545;-80
2021/08/17 08:31:15;;;;;;;12.88;5.28;;;17.50;73.10;;;;;;5075729;28;20411;-81
2021/08/17 08:33:40;;;;;;;7.10;4.00;;;17.60;71.40;;;;;;5075425;28;20215;-80
2021/08/17 08:36:08;;;;;;;6.83;3.80;;;17.90;71.70;;;;;;5075619;28;20407;-81
2021/08/17 08:38:34;;;;;;;14.65;4.90;;;18.10;67.80;;;;;;5075509;28;20429;-81
2021/08/17 08:41:00;;;;;;;13.32;5.60;;;18.30;67.40;;;;;;5074935;28;20196;-80
2021/08/17 08:43:26;;;;;;;8.80;4.33;;;18.30;65.10;;;;;;5075382;28;20196;-80
2021/08/17 08:45:52;;;;;;;10.90;4.33;;;18.20;65.30;;;;;;5074838;28;20512;-80
2021/08/17 08:48:22;;;;;;;10.97;5.40;;;18.10;66.20;;;;;;5074865;28;20497;-80
2021/08/17 08:50:50;;;;;;;16.00;6.22;;;18.10;68.00;;;;;;5075345;28;20415;-80
2021/08/17 08:53:16;;;;;;;12.23;5.32;;;18.10;66.20;;;;;;5074808;28;20196;-80
2021/08/17 08:55:44;;;;;;;13.82;5.32;;;18.00;66.60;;;;;;5075051;28;20168;-80
2021/08/17 08:58:10;;;;;;;10.20;4.95;;;18.00;66.90;;;;;;5074765;28;20179;-80
2021/08/17 09:00:37;;;;;;;12.00;5.90;;;18.00;69.10;;;;;;5075320;28;20168;-81
2021/08/17 09:03:02;;;;;;;10.00;4.95;;;18.10;69.60;;;;;;5073347;28;20656;-80
2021/08/17 09:05:28;;;;;;;22.70;5.67;;;18.20;68.10;;;;;;5074750;28;20165;-80
2021/08/17 09:07:56;;;;;;;12.90;5.18;;;18.10;65.90;;;;;;5074256;28;20407;-80
2021/08/17 09:10:26;;;;;;;10.32;5.90;;;18.10;66.20;;;;;;5074277;28;20788;-81
2021/08/17 09:13:00;;;;;;;12.90;5.28;;;18.20;68.80;;;;;;5074396;28;20207;-80
2021/08/17 09:15:34;;;;;;;12.32;5.10;;;18.40;65.50;;;;;;5074504;28;20196;-80
2021/08/17 09:18:05;;;;;;;11.02;4.75;;;18.50;66.20;;;;;;5074524;28;20173;-80
2021/08/17 09:20:43;;;;;;;10.75;4.78;;;18.70;65.90;;;;;;5074476;28;20173;-81
2021/08/17 09:23:25;;;;;;;12.90;4.78;;;18.90;65.60;;;;;;5074310;28;20237;-80
2021/08/17 09:25:53;;;;;;;11.73;5.43;;;19.10;65.90;;;;;;5074028;28;20263;-81
2021/08/17 09:28:33;;;;;;;13.00;4.50;;;19.30;62.70;;;;;;5074345;28;20164;-81
2021/08/17 09:31:02;;;;;;;12.27;5.13;;;19.20;61.60;;;;;;5074056;28;20179;-80
2021/08/17 09:33:39;;;;;;;14.00;4.85;;;19.10;62.10;;;;;;5073932;28;20291;-81
2021/08/17 09:36:07;;;;;;;13.38;4.50;;;19.00;58.40;;;;;;5074576;28;20451;-81
2021/08/17 09:38:33;;;;;;;10.10;5.20;;;18.80;62.10;;;;;;5075261;28;20196;-81
2021/08/17 09:41:17;;;;;;;10.68;4.53;;;19.00;63.00;;;;;;5074020;28;20175;-81
2021/08/17 09:43:54;;;;;;;10.15;4.30;;;19.30;62.10;;;;;;5074623;28;20291;-81
2021/08/17 09:46:26;;;;;;;12.93;4.82;;;19.40;60.10;;;;;;5074099;28;20187;-81
2021/08/17 09:48:54;;;;;;;13.95;4.32;;;19.50;59.60;;;;;;5074242;28;20293;-81
2021/08/17 09:51:35;;;;;;;11.48;6.30;;;19.50;58.00;;;;;;5074055;28;20206;-81
2021/08/17 09:54:18;;;;;;;14.98;4.68;;;19.70;57.90;;;;;;5073311;28;20207;-81
2021/08/17 09:57:00;;;;;;;13.45;4.93;;;19.70;57.50;;;;;;5073947;28;20188;-80
2021/08/17 09:59:27;;;;;;;11.52;4.43;;;19.60;57.90;;;;;;5073863;28;20218;-80
2021/08/17 10:01:54;;;;;;;7.93;4.68;;;19.60;56.00;;;;;;5073871;28;20173;-80
2021/08/17 10:04:22;;;;;;;8.70;4.22;;;19.60;56.30;;;;;;5073820;28;20196;-81
2021/08/17 10:06:53;;;;;;;12.00;5.07;;;19.50;56.70;;;;;;5073266;28;20176;-79
2021/08/17 10:09:21;;;;;;;7.05;4.32;;;19.50;56.20;;;;;;5073644;28;20276;-80
2021/08/17 10:11:47;;;;;;;14.98;4.05;;;19.40;57.70;;;;;;5074059;28;20176;-81
2021/08/17 10:14:17;;;;;;;11.00;4.73;;;19.60;55.50;;;;;;5074220;28;20265;-80
2021/08/17 10:16:44;;;;;;;9.38;4.55;;;19.60;54.90;;;;;;5073991;28;20996;-80
2021/08/17 10:19:20;;;;;;;13.27;5.00;;;19.60;57.00;;;;;;5073910;28;20643;-80
2021/08/17 10:21:48;;;;;;;11.10;5.05;;;19.40;56.80;;;;;;5073788;28;20371;-80
2021/08/17 10:24:27;;;;;;;11.45;4.40;;;19.40;56.80;;;;;;5073814;28;20703;-80
2021/08/17 10:27:16;;;;;;;11.00;3.65;;;19.40;57.20;;;;;;5073726;28;20183;-80
2021/08/17 10:30:05;;;;;;;10.00;4.15;;;19.40;57.60;;;;;;5073807;28;20238;-81
2021/08/17 10:32:45;;;;;;;9.07;4.13;;;19.40;56.30;;;;;;5074100;28;20204;-80
2021/08/17 10:35:29;;;;;;;11.75;3.75;;;19.30;55.00;;;;;;5073544;28;20221;-81
2021/08/17 10:38:07;;;;;;;9.80;3.63;;;19.30;54.70;;;;;;5073575;28;20183;-81
2021/08/17 10:40:51;;;;;;;7.78;3.75;;;19.40;55.30;;;;;;5073968;28;20172;-80
2021/08/17 10:43:25;;;;;;;7.88;3.70;;;19.50;54.60;;;;;;5074552;28;20164;-80
2021/08/17 10:45:59;;;;;;;7.05;3.53;;;19.50;53.70;;;;;;5074202;28;20203;-81
2021/08/17 10:48:48;;;;;;;9.88;4.25;;;19.60;56.20;;;;;;5073066;28;20614;-80
2021/08/17 10:51:22;;;;;;;10.65;4.15;;;20.20;54.90;;;;;;5073365;28;20653;-80
2021/08/17 10:54:14;;;;;;;13.95;5.32;;;20.30;55.10;;;;;;5072785;28;20200;-80
2021/08/17 10:56:41;;;;;;;9.82;4.25;;;20.40;53.00;;;;;;5073448;28;20183;-81
2021/08/17 10:59:07;;;;;;;9.23;3.90;;;20.50;53.90;;;;;;5072978;28;20173;-80
2021/08/17 11:01:42;;;;;;;10.77;3.97;;;20.70;54.60;;;;;;5073446;28;20180;-81
2021/08/17 11:04:10;;;;;;;10.13;4.30;;;21.00;54.70;;;;;;5073563;28;20434;-81
2021/08/17 11:06:41;;;;;;;12.80;4.15;;;21.20;51.70;;;;;;5073511;28;20239;-80
2021/08/17 11:09:08;;;;;;;9.13;3.95;;;21.30;52.20;;;;;;5072988;28;20547;-80
2021/08/17 11:11:36;;;;;;;8.98;3.95;;;21.40;53.00;;;;;;5073058;28;20690;-81
2021/08/17 11:14:15;;;;;;;9.55;4.43;;;21.50;53.60;;;;;;5072338;28;20204;-81
2021/08/17 11:16:53;;;;;;;8.02;4.03;;;21.60;52.50;;;;;;5073010;28;20195;-81
2021/08/17 11:19:20;;;;;;;12.45;4.50;;;21.70;51.50;;;;;;5073114;28;20172;-81
2021/08/17 11:21:56;;;;;;;7.55;4.07;;;21.70;52.20;;;;;;5072938;28;20539;-81
2021/08/17 11:24:43;;;;;;;7.68;4.13;;;21.60;51.60;;;;;;5072710;28;20203;-81
2021/08/17 11:27:15;;;;;;;12.63;4.68;;;21.60;52.10;;;;;;5075716;28;20179;-81
2021/08/17 11:29:51;;;;;;;13.45;5.10;;;21.60;51.70;;;;;;5076781;28;20169;-81
2021/08/17 11:32:37;;;;;;;10.45;3.78;;;21.50;53.30;;;;;;5076432;28;20172;-80
2021/08/17 11:35:27;;;;;;;12.63;4.88;;;21.50;50.80;;;;;;5076334;28;20235;-81
2021/08/17 11:37:57;;;;;;;7.00;3.65;;;21.50;49.50;;;;;;5076893;28;20165;-81
2021/08/17 11:40:25;;;;;;;10.48;3.67;;;21.70;50.00;;;;;;5077181;28;20172;-81
2021/08/17 11:42:55;;;;;;;8.70;3.63;;;21.90;50.00;;;;;;5077198;28;20690;-81
2021/08/17 11:45:23;;;;;;;6.95;3.03;;;22.10;49.40;;;;;;5077002;28;20200;-81
2021/08/17 11:47:51;;;;;;;7.35;3.10;;;22.40;49.00;;;;;;5076687;28;20168;-81
2021/08/17 11:50:19;;;;;;;9.15;4.10;;;22.30;50.50;;;;;;5076884;28;20196;-81
2021/08/17 11:52:47;;;;;;;7.50;3.22;;;22.20;47.80;;;;;;5076684;28;20173;-81
2021/08/17 11:55:42;;;;;;;8.10;3.17;;;22.10;46.50;;;;;;5075931;28;20250;-80
2021/08/17 11:58:08;;;;;;;6.22;3.03;;;21.90;46.90;;;;;;5068735;28;20544;-81
2021/08/17 12:00:34;;;;;;;12.10;4.37;;;22.10;47.90;;;;;;5077125;28;20263;-81
2021/08/17 12:03:06;;;;;;;9.75;3.55;;;22.20;46.20;;;;;;5076778;28;20498;-82
2021/08/17 12:05:37;;;;;;;9.68;3.28;;;22.10;49.20;;;;;;5076543;28;20200;-81
2021/08/17 12:08:06;;;;;;;9.15;3.55;;;22.20;46.10;;;;;;5076495;28;20536;-81
2021/08/17 12:10:34;;;;;;;7.32;3.17;;;22.30;46.10;;;;;;5076784;28;20291;-82
2021/08/17 12:13:08;;;;;;;7.65;3.97;;;22.50;47.00;;;;;;5076819;28;20176;-81
2021/08/17 12:15:40;;;;;;;6.15;3.25;;;22.60;47.30;;;;;;5076352;28;20216;-82
2021/08/17 12:18:14;;;;;;;5.75;2.90;;;22.80;47.40;;;;;;5077177;28;20173;-82
2021/08/17 12:20:44;;;;;;;7.70;3.85;;;22.80;44.60;;;;;;5076815;28;20264;-82
2021/08/17 12:23:17;;;;;;;6.68;3.22;;;22.90;45.60;;;;;;5076883;28;20169;-81
2021/08/17 12:25:43;;;;;;;6.43;2.90;;;23.10;44.10;;;;;;5076639;28;20173;-82
2021/08/17 12:28:13;;;;;;;8.13;3.85;;;23.10;46.60;;;;;;5077078;28;20650;-82
2021/08/17 12:30:39;;;;;;;8.07;3.92;;;23.10;46.30;;;;;;5079100;28;20184;-82
2021/08/17 12:33:05;;;;;;;6.53;3.20;;;23.30;48.40;;;;;;5076621;28;20537;-82
2021/08/17 12:35:36;;;;;;;7.20;3.10;;;23.30;46.50;;;;;;5076497;28;20263;-82
2021/08/17 12:38:18;;;;;;;7.75;3.70;;;23.50;43.90;;;;;;5075930;28;20517;-82
2021/08/17 12:40:49;;;;;;;7.60;3.30;;;23.70;45.20;;;;;;5076701;28;20178;-81
2021/08/17 12:43:22;;;;;;;7.32;2.60;;;23.70;44.60;;;;;;5076653;28;20175;-82
2021/08/17 12:45:49;;;;;;;6.88;3.45;;;23.70;46.10;;;;;;5076342;28;20183;-81